createdAt,value
2019-01-20T00:01:27.522Z,98103.61
2019-01-20T00:03:59.415Z,98093.50
2019-01-20T00:06:29.607Z,98089.96
2019-01-20T00:09:00.257Z,98095.11
2019-01-20T00:11:30.768Z,98084.34
2019-01-20T00:14:00.974Z,98087.43
2019-01-20T00:16:31.153Z,98088.00
2019-01-20T00:19:01.368Z,98086.97
2019-01-20T00:21:33.019Z,98086.17
2019-01-20T00:24:03.860Z,98086.03
2019-01-20T00:26:34.394Z,98084.62
2019-01-20T00:29:06.898Z,98083.16
2019-01-20T00:31:37.278Z,98084.95
2019-01-20T00:34:07.536Z,98086.03
2019-01-20T00:36:38.046Z,98083.08
2019-01-20T00:39:09.461Z,98081.72
2019-01-20T00:41:39.931Z,98082.23
2019-01-20T00:44:10.412Z,98083.16
2019-01-20T00:46:41.792Z,98077.27
2019-01-20T00:49:12.636Z,98079.75
2019-01-20T00:51:43.131Z,98077.78
2019-01-20T00:54:13.869Z,98075.67
2019-01-20T00:56:44.080Z,98075.81
2019-01-20T00:59:14.722Z,98077.91
2019-01-20T01:01:45.287Z,98075.89
2019-01-20T01:04:16.559Z,98078.55
2019-01-20T01:06:47.092Z,98073.44
2019-01-20T01:09:18.248Z,98075.41
2019-01-20T01:11:49.040Z,98071.80
2019-01-20T01:14:19.964Z,98073.02
2019-01-20T01:16:50.517Z,98080.48
2019-01-20T01:19:20.707Z,98085.06
2019-01-20T01:21:51.253Z,98087.02
2019-01-20T01:24:21.832Z,98082.13
2019-01-20T01:26:52.058Z,98088.68
2019-01-20T01:29:22.280Z,98087.37
2019-01-20T01:31:53.079Z,98089.35
2019-01-20T01:34:23.275Z,98086.81
2019-01-20T01:36:53.816Z,98092.39
2019-01-20T01:39:24.007Z,98093.77
2019-01-20T01:41:54.882Z,98093.08
2019-01-20T01:44:25.417Z,98095.39
2019-01-20T01:46:55.948Z,98098.08
2019-01-20T01:49:26.188Z,98099.55
2019-01-20T01:51:56.869Z,98105.70
2019-01-20T01:54:27.070Z,98099.05
2019-01-20T01:56:57.295Z,98093.58
2019-01-20T01:59:27.492Z,98095.22
2019-01-20T02:01:58.376Z,98100.88
2019-01-20T02:04:28.566Z,98100.04
2019-01-20T02:06:59.477Z,98104.82
2019-01-20T02:09:29.692Z,98097.14
2019-01-20T02:12:00.020Z,98105.20
2019-01-20T02:14:30.264Z,98101.54
2019-01-20T02:17:00.839Z,98106.13
2019-01-20T02:19:31.050Z,98099.70
2019-01-20T02:22:01.899Z,98107.02
2019-01-20T02:24:32.735Z,98100.45
2019-01-20T02:27:02.959Z,98107.56
2019-01-20T02:29:33.191Z,98101.55
2019-01-20T02:32:04.388Z,98104.31
2019-01-20T02:34:35.266Z,98105.62
2019-01-20T02:37:06.306Z,98105.77
2019-01-20T02:39:36.502Z,98104.77
2019-01-20T02:42:06.723Z,98106.27
2019-01-20T02:44:37.276Z,98109.66
2019-01-20T02:47:07.522Z,98108.02
2019-01-20T02:49:37.712Z,98103.67
2019-01-20T02:52:08.331Z,98107.95
2019-01-20T02:54:38.846Z,98103.98
2019-01-20T02:57:09.105Z,98108.67
2019-01-20T02:59:39.297Z,98100.95
2019-01-20T03:02:09.958Z,98104.45
2019-01-20T03:04:40.493Z,98102.25
2019-01-20T03:07:10.964Z,98102.25
2019-01-20T03:09:41.167Z,98099.05
2019-01-20T03:12:11.387Z,98091.14
2019-01-20T03:14:42.560Z,98090.55
2019-01-20T03:19:36.237Z,98084.79
2019-01-20T03:22:06.926Z,98088.59
2019-01-20T03:24:37.569Z,98084.41
2019-01-20T03:27:07.789Z,98081.71
2019-01-20T03:29:38.728Z,98079.09
2019-01-20T03:32:09.572Z,98077.06
2019-01-20T03:34:39.837Z,98083.14
2019-01-20T03:37:11.101Z,98080.40
2019-01-20T03:39:41.905Z,98082.41
2019-01-20T03:42:12.414Z,98077.69
2019-01-20T03:44:43.149Z,98075.23
2019-01-20T03:47:13.706Z,98083.64
2019-01-20T03:49:44.438Z,98079.26
2019-01-20T03:52:14.760Z,98083.43
2019-01-20T03:54:45.269Z,98080.93
2019-01-20T03:57:15.792Z,98076.36
2019-01-20T03:59:46.264Z,98078.64
2019-01-20T04:02:18.584Z,98075.22
2019-01-20T04:04:49.127Z,98077.45
2019-01-20T04:07:19.406Z,98073.88
2019-01-20T04:09:49.691Z,98073.88
2019-01-20T04:12:20.789Z,98066.91
2019-01-20T04:14:51.258Z,98063.49
2019-01-20T04:17:21.968Z,98069.35
2019-01-20T04:19:52.499Z,98066.39
2019-01-20T04:22:22.745Z,98066.58
2019-01-20T04:24:53.028Z,98066.97
2019-01-20T04:27:23.615Z,98066.34
2019-01-20T04:29:54.472Z,98063.38
2019-01-20T04:32:24.713Z,98058.77
2019-01-20T04:34:54.995Z,98068.89
2019-01-20T04:37:25.587Z,98066.85
2019-01-20T04:39:55.802Z,98066.86
2019-01-20T04:42:29.121Z,98064.09
2019-01-20T04:44:57.968Z,98068.59
2019-01-20T04:47:28.497Z,98069.12
2019-01-20T04:49:58.966Z,98071.31
2019-01-20T04:52:29.899Z,98076.09
2019-01-20T04:55:00.510Z,98074.16
2019-01-20T04:57:31.379Z,98079.86
2019-01-20T05:00:01.589Z,98073.59
2019-01-20T05:02:31.833Z,98078.55
2019-01-20T05:05:02.414Z,98079.89
2019-01-20T05:07:34.994Z,98077.47
2019-01-20T05:10:06.556Z,98080.73
2019-01-20T05:12:37.521Z,98070.45
2019-01-20T05:15:10.747Z,98074.27
2019-01-20T05:17:41.398Z,98073.07
2019-01-20T05:20:12.605Z,98074.56
2019-01-20T05:22:43.211Z,98078.64
2019-01-20T05:25:13.678Z,98076.55
2019-01-20T05:27:44.584Z,98076.44
2019-01-20T05:30:20.928Z,98075.13
2019-01-20T05:32:51.354Z,98076.59
2019-01-20T05:35:21.532Z,98069.92
2019-01-20T05:37:52.130Z,98070.20
2019-01-20T05:40:23.680Z,98069.16
2019-01-20T05:42:54.205Z,98069.44
2019-01-20T05:45:26.155Z,98069.91
2019-01-20T05:47:56.733Z,98069.56
2019-01-20T05:50:27.292Z,98074.68
2019-01-20T05:52:57.800Z,98074.52
2019-01-20T05:55:28.285Z,98069.66
2019-01-20T05:57:59.227Z,98075.16
2019-01-20T06:00:32.376Z,98073.18
2019-01-20T06:03:04.282Z,98078.55
2019-01-20T06:05:34.482Z,98079.01
2019-01-20T06:08:05.173Z,98078.93
2019-01-20T06:10:35.369Z,98089.28
2019-01-20T06:13:06.085Z,98091.86
2019-01-20T06:15:36.280Z,98088.65
2019-01-20T06:18:07.051Z,98092.15
2019-01-20T06:20:37.316Z,98094.17
2019-01-20T06:23:07.843Z,98099.75
2019-01-20T06:25:38.037Z,98104.52
2019-01-20T06:28:09.018Z,98107.73
2019-01-20T06:30:39.223Z,98109.33
2019-01-20T06:33:09.776Z,98115.29
2019-01-20T06:35:40.287Z,98114.21
2019-01-20T06:38:10.812Z,98115.78
2019-01-20T06:40:41.709Z,98114.59
2019-01-20T06:43:12.775Z,98113.28
2019-01-20T06:45:43.345Z,98114.23
2019-01-20T06:48:15.042Z,98111.86
2019-01-20T06:50:45.266Z,98114.44
2019-01-20T06:53:15.609Z,98111.73
2019-01-20T06:55:45.835Z,98112.91
2019-01-20T06:58:17.157Z,98115.02
2019-01-20T07:00:47.445Z,98117.92
2019-01-20T07:03:18.936Z,98120.08
2019-01-20T07:05:49.187Z,98113.14
2019-01-20T07:08:19.395Z,98116.61
2019-01-20T07:10:49.674Z,98116.09
2019-01-20T07:13:21.668Z,98118.72
2019-01-20T07:15:52.201Z,98122.57
2019-01-20T07:18:23.147Z,98120.28
2019-01-20T07:20:53.738Z,98120.55
2019-01-20T07:23:24.404Z,98121.88
2019-01-20T07:25:55.251Z,98121.60
2019-01-20T07:28:25.875Z,98127.52
2019-01-20T07:30:56.403Z,98131.07
2019-01-20T07:33:26.930Z,98133.83
2019-01-20T07:35:57.154Z,98136.70
2019-01-20T07:38:27.350Z,98139.46
2019-01-20T07:40:57.588Z,98144.98
2019-01-20T07:43:27.910Z,98146.73
2019-01-20T07:45:58.188Z,98151.27
2019-01-20T07:48:28.842Z,98151.13
2019-01-20T07:50:59.377Z,98152.62
2019-01-20T07:53:30.248Z,98160.45
2019-01-20T07:56:00.777Z,98151.58
2019-01-20T07:58:31.715Z,98156.87
2019-01-20T08:01:02.005Z,98150.58
2019-01-20T08:03:33.305Z,98154.78
2019-01-20T08:06:03.918Z,98157.73
2019-01-20T08:08:34.543Z,98159.38
2019-01-20T08:11:05.194Z,98159.14
2019-01-20T08:13:35.826Z,98159.78
2019-01-20T08:16:07.236Z,98157.80
2019-01-20T08:18:37.478Z,98166.28
2019-01-20T08:21:08.103Z,98168.91
2019-01-20T08:23:38.957Z,98174.95
2019-01-20T08:26:09.347Z,98179.13
2019-01-20T08:28:39.963Z,98182.92
2019-01-20T08:31:11.991Z,98180.62
2019-01-20T08:33:43.031Z,98180.82
2019-01-20T08:36:14.109Z,98181.84
2019-01-20T08:38:44.479Z,98184.41
2019-01-20T08:41:15.277Z,98187.09
2019-01-20T08:43:45.777Z,98185.41
2019-01-20T08:47:00.764Z,98199.37
2019-01-20T08:49:31.127Z,98195.53
2019-01-20T08:52:03.127Z,98199.88
2019-01-20T08:54:33.751Z,98207.65
2019-01-20T08:57:04.071Z,98205.50
2019-01-20T08:59:34.282Z,98212.45
2019-01-20T09:02:04.722Z,98215.88
2019-01-20T09:04:35.348Z,98215.66
2019-01-20T09:07:05.746Z,98215.14
2019-01-20T09:09:35.975Z,98215.62
2019-01-20T09:12:06.298Z,98226.00
2019-01-20T09:14:37.987Z,98227.31
2019-01-20T09:17:08.277Z,98225.24
2019-01-20T09:19:38.603Z,98225.03
2019-01-20T09:22:09.179Z,98230.23
2019-01-20T09:24:39.415Z,98223.66
2019-01-20T09:27:09.730Z,98222.42
2019-01-20T09:29:40.934Z,98223.73
2019-01-20T09:32:11.693Z,98215.21
2019-01-20T09:34:42.442Z,98219.70
2019-01-20T09:37:14.289Z,98219.14
2019-01-20T09:39:47.031Z,98220.27
2019-01-20T09:42:19.211Z,98216.92
2019-01-20T09:44:49.479Z,98224.25
2019-01-20T09:47:20.305Z,98218.39
2019-01-20T09:49:50.741Z,98217.44
2019-01-20T09:52:21.326Z,98231.73
2019-01-20T09:54:52.163Z,98230.83
2019-01-20T09:57:22.767Z,98234.07
2019-01-20T09:59:55.204Z,98240.59
2019-01-20T10:02:26.747Z,98243.31
2019-01-20T10:04:57.346Z,98244.73
2019-01-20T10:07:30.468Z,98246.48
2019-01-20T10:10:01.829Z,98243.06
2019-01-20T10:12:32.108Z,98245.83
2019-01-20T10:15:02.995Z,98244.65
2019-01-20T10:17:34.215Z,98248.33
2019-01-20T10:20:07.831Z,98250.58
2019-01-20T10:22:38.315Z,98251.03
2019-01-20T10:25:15.033Z,98256.04
2019-01-20T10:27:45.200Z,98253.88
2019-01-20T10:30:24.036Z,98256.53
2019-01-20T10:32:55.697Z,98257.26
2019-01-20T10:35:51.318Z,98254.44
2019-01-20T10:38:22.096Z,98261.16
2019-01-20T10:40:52.355Z,98260.48
2019-01-20T10:43:25.248Z,98262.27
2019-01-20T10:45:57.578Z,98258.77
2019-01-20T10:48:27.836Z,98254.81
2019-01-20T10:50:58.450Z,98252.94
2019-01-20T10:53:29.052Z,98253.87
2019-01-20T10:55:59.585Z,98256.23
2019-01-20T10:58:29.988Z,98259.13
2019-01-20T11:01:00.281Z,98265.02
2019-01-20T11:03:30.671Z,98269.94
2019-01-20T11:06:00.902Z,98256.59
2019-01-20T11:08:31.217Z,98265.02
2019-01-20T11:11:01.696Z,98267.48
2019-01-20T11:13:31.935Z,98262.28
2019-01-20T11:16:02.599Z,98261.41
2019-01-20T11:18:32.938Z,98274.38
2019-01-20T11:21:03.289Z,98269.39
2019-01-20T11:23:33.941Z,98271.13
2019-01-20T11:26:05.038Z,98269.02
2019-01-20T11:28:36.406Z,98260.73
2019-01-20T11:31:08.535Z,98264.09
2019-01-20T11:33:39.179Z,98260.06
2019-01-20T11:36:09.962Z,98258.31
2019-01-20T11:38:41.231Z,98265.75
2019-01-20T11:41:11.522Z,98262.78
2019-01-20T11:43:41.836Z,98260.70
2019-01-20T11:46:12.094Z,98251.50
2019-01-20T11:48:42.793Z,98251.70
2019-01-20T11:51:13.147Z,98259.38
2019-01-20T11:53:44.622Z,98248.58
2019-01-20T11:56:15.567Z,98259.80
2019-01-20T11:58:45.915Z,98263.36
2019-01-20T12:01:17.244Z,98251.88
2019-01-20T12:03:48.178Z,98255.06
2019-01-20T12:06:19.565Z,98248.20
2019-01-20T12:08:50.156Z,98246.70
2019-01-20T12:11:20.459Z,98248.95
2019-01-20T12:13:51.027Z,98247.14
2019-01-20T12:16:21.616Z,98249.41
2019-01-20T12:18:52.490Z,98241.28
2019-01-20T12:21:22.882Z,98236.85
2019-01-20T12:23:53.552Z,98242.41
2019-01-20T12:26:24.553Z,98243.23
2019-01-20T12:28:54.774Z,98239.39
2019-01-20T12:31:25.052Z,98238.86
2019-01-20T12:33:57.510Z,98239.63
2019-01-20T12:51:05.412Z,98230.66
2019-01-20T12:53:36.440Z,98238.08
2019-01-20T12:56:06.729Z,98226.77
2019-01-20T12:58:37.328Z,98229.37
2019-01-20T13:01:07.868Z,98227.90
2019-01-20T13:03:38.811Z,98220.69
2019-01-20T13:06:09.359Z,98224.23
2019-01-20T13:08:40.030Z,98216.24
2019-01-20T13:11:10.593Z,98220.70
2019-01-20T13:13:41.128Z,98220.96
2019-01-20T13:16:11.330Z,98217.97
2019-01-20T13:18:42.178Z,98216.55
2019-01-20T13:21:12.476Z,98219.48
2019-01-20T13:23:43.036Z,98214.56
2019-01-20T13:26:13.591Z,98215.16
2019-01-20T13:28:44.109Z,98221.03
2019-01-20T13:31:14.572Z,98215.81
2019-01-20T13:33:44.776Z,98223.58
2019-01-20T13:36:15.309Z,98221.05
2019-01-20T13:38:45.909Z,98221.48
2019-01-20T13:41:25.889Z,98223.65
2019-01-20T13:43:57.660Z,98225.09
2019-01-20T13:46:27.833Z,98219.81
2019-01-20T13:48:58.058Z,98224.27
2019-01-20T13:51:28.588Z,98225.42
2019-01-20T13:53:59.115Z,98228.91
2019-01-20T13:56:29.743Z,98222.27
2019-01-20T13:58:59.943Z,98232.97
2019-01-20T14:01:30.120Z,98232.13
2019-01-20T14:04:00.741Z,98233.25
2019-01-20T14:06:30.929Z,98233.05
2019-01-20T14:09:01.167Z,98226.80
2019-01-20T14:11:33.614Z,98226.27
2019-01-20T14:14:04.489Z,98223.96
2019-01-20T14:16:34.990Z,98236.62
2019-01-20T14:19:05.607Z,98233.41
2019-01-20T14:21:36.176Z,98237.16
2019-01-20T14:24:06.385Z,98246.22
2019-01-20T14:26:36.591Z,98238.89
2019-01-20T14:29:07.147Z,98239.08
2019-01-20T14:31:38.505Z,98242.89
2019-01-20T14:34:08.790Z,98251.64
2019-01-20T14:36:39.546Z,98246.75
2019-01-20T14:39:13.475Z,98248.70
2019-01-20T14:41:43.870Z,98253.66
2019-01-20T14:44:14.424Z,98252.19
2019-01-20T14:46:45.349Z,98249.33
2019-01-20T14:49:15.582Z,98255.31
2019-01-20T14:51:45.794Z,98257.58
2019-01-20T14:54:16.742Z,98256.73
2019-01-20T14:56:47.203Z,98261.39
2019-01-20T14:59:17.412Z,98259.48
2019-01-20T15:01:47.892Z,98260.50
2019-01-20T15:04:18.454Z,98264.53
2019-01-20T15:06:48.979Z,98262.14
2019-01-20T15:09:19.833Z,98262.20
2019-01-20T15:11:50.413Z,98266.75
2019-01-20T15:14:20.620Z,98267.14
2019-01-20T15:16:50.789Z,98264.84
2019-01-20T15:19:21.881Z,98276.20
2019-01-20T15:21:52.877Z,98277.06
2019-01-20T15:24:23.394Z,98271.86
2019-01-20T15:26:53.609Z,98271.64
2019-01-20T15:29:24.472Z,98278.55
2019-01-20T15:31:54.980Z,98274.67
2019-01-20T15:34:25.505Z,98278.98
2019-01-20T15:36:55.741Z,98282.09
2019-01-20T15:39:26.587Z,98279.84
2019-01-20T15:41:57.534Z,98280.12
2019-01-20T15:44:28.041Z,98285.54
2019-01-20T15:46:58.309Z,98290.54
2019-01-20T15:49:28.549Z,98294.55
2019-01-20T15:51:59.337Z,98294.74
2019-01-20T15:54:29.575Z,98298.73
2019-01-20T15:56:59.861Z,98297.98
2019-01-20T15:59:30.150Z,98292.59
2019-01-20T16:02:01.351Z,98304.35
2019-01-20T16:04:32.289Z,98297.71
2019-01-20T16:07:03.026Z,98305.05
2019-01-20T16:09:33.658Z,98301.17
2019-01-20T16:12:04.013Z,98306.44
2019-01-20T16:14:34.915Z,98304.53
2019-01-20T16:17:06.375Z,98303.69
2019-01-20T16:19:37.203Z,98305.52
2019-01-20T16:22:07.560Z,98314.15
2019-01-20T16:24:37.851Z,98311.52
2019-01-20T16:27:08.056Z,98316.26
2019-01-20T16:29:39.333Z,98315.19
2019-01-20T16:32:09.963Z,98315.45
2019-01-20T16:34:40.433Z,98314.47
2019-01-20T16:37:11.777Z,98321.69
2019-01-20T16:39:45.765Z,98324.51
2019-01-20T16:42:14.155Z,98334.17
2019-01-20T16:44:44.375Z,98339.23
2019-01-20T16:47:15.069Z,98342.23
2019-01-20T16:49:45.330Z,98346.84
2019-01-20T16:52:15.595Z,98356.30
2019-01-20T16:54:45.815Z,98351.28
2019-01-20T16:57:16.447Z,98350.70
2019-01-20T16:59:46.654Z,98351.81
2019-01-20T17:02:17.955Z,98355.59
2019-01-20T17:04:48.285Z,98355.46
2019-01-20T17:07:18.509Z,98361.23
2019-01-20T17:09:49.901Z,98365.25
2019-01-20T17:12:20.120Z,98370.75
2019-01-20T17:14:50.473Z,98376.12
2019-01-20T17:17:21.035Z,98379.52
2019-01-20T17:19:51.260Z,98373.61
2019-01-20T17:22:21.489Z,98374.62
2019-01-20T17:24:52.121Z,98376.48
2019-01-20T17:27:22.722Z,98376.91
2019-01-20T17:29:52.927Z,98379.20
2019-01-20T17:32:23.173Z,98383.79
2019-01-20T17:34:53.381Z,98386.03
2019-01-20T17:37:24.248Z,98386.49
2019-01-20T17:39:54.769Z,98387.39
2019-01-20T17:42:25.361Z,98387.39
2019-01-20T17:44:55.569Z,98396.16
2019-01-20T17:47:26.146Z,98396.72
2019-01-20T17:49:56.442Z,98400.83
2019-01-20T17:52:27.007Z,98402.44
2019-01-20T17:54:57.848Z,98407.64
2019-01-20T17:57:28.107Z,98408.83
2019-01-20T17:59:59.013Z,98412.45
2019-01-20T18:02:29.540Z,98414.58
2019-01-20T18:04:59.741Z,98420.41
2019-01-20T18:07:30.698Z,98424.36
2019-01-20T18:10:01.329Z,98426.47
2019-01-20T18:12:31.564Z,98431.08
2019-01-20T18:15:02.103Z,98433.33
2019-01-20T18:17:33.428Z,98437.70
2019-01-20T18:20:03.792Z,98441.75
2019-01-20T18:22:34.064Z,98441.23
2019-01-20T18:25:04.993Z,98442.00
2019-01-20T18:27:36.487Z,98441.36
2019-01-20T18:30:08.420Z,98444.27
2019-01-20T18:32:38.940Z,98448.59
2019-01-20T18:35:10.135Z,98444.60
2019-01-20T18:37:40.733Z,98446.77
2019-01-20T18:40:14.328Z,98456.61
2019-01-20T18:42:45.075Z,98458.21
2019-01-20T18:45:17.478Z,98467.46
2019-01-20T18:47:47.786Z,98465.48
2019-01-20T18:50:23.887Z,98470.81
2019-01-20T18:52:54.223Z,98471.33
2019-01-20T18:55:25.205Z,98470.15
2019-01-20T18:57:55.571Z,98474.19
2019-01-20T19:00:46.226Z,98483.34
2019-01-20T19:03:18.841Z,98479.65
2019-01-20T19:05:49.368Z,98487.45
2019-01-20T19:08:20.626Z,98489.70
2019-01-20T19:10:51.122Z,98486.86
2019-01-20T19:13:21.645Z,98494.58
2019-01-20T19:15:52.872Z,98494.23
2019-01-20T19:18:23.114Z,98493.73
2019-01-20T19:20:53.668Z,98496.83
2019-01-20T19:23:24.476Z,98497.29
2019-01-20T19:25:55.767Z,98493.01
2019-01-20T19:28:26.002Z,98498.77
2019-01-20T19:30:56.503Z,98507.72
2019-01-20T19:33:27.399Z,98502.08
2019-01-20T19:35:58.095Z,98503.78
2019-01-20T19:38:28.805Z,98508.73
2019-01-20T19:40:59.620Z,98511.53
2019-01-20T19:43:30.920Z,98511.10
2019-01-20T19:46:01.833Z,98508.40
2019-01-20T19:48:32.091Z,98513.98
2019-01-20T19:51:03.546Z,98515.89
2019-01-20T19:53:33.805Z,98519.12
2019-01-20T19:56:05.257Z,98519.75
2019-01-20T19:58:35.486Z,98524.84
2019-01-20T20:01:05.713Z,98526.83
2019-01-20T20:03:36.266Z,98527.17
2019-01-20T20:06:07.920Z,98532.81
2019-01-20T20:08:38.545Z,98534.97
2019-01-20T20:11:09.520Z,98540.31
2019-01-20T20:13:40.432Z,98537.68
2019-01-20T20:16:11.030Z,98544.64
2019-01-20T20:18:41.706Z,98542.42
2019-01-20T20:21:12.214Z,98548.06
2019-01-20T20:23:42.744Z,98547.68
2019-01-20T20:26:12.985Z,98551.72
2019-01-20T20:28:43.908Z,98553.20
2019-01-20T20:31:14.163Z,98558.07
2019-01-20T20:33:44.866Z,98554.93
2019-01-20T20:36:15.600Z,98554.13
2019-01-20T20:38:46.234Z,98552.73
2019-01-20T20:41:18.675Z,98554.77
2019-01-20T20:43:50.084Z,98561.21
2019-01-20T20:46:20.786Z,98563.84
2019-01-20T20:48:51.103Z,98563.72
2019-01-20T20:51:21.303Z,98567.56
2019-01-20T20:53:52.175Z,98566.64
2019-01-20T20:56:22.701Z,98566.59
2019-01-20T20:58:53.390Z,98573.55
2019-01-20T21:01:23.625Z,98568.41
2019-01-20T21:03:56.055Z,98569.34
2019-01-20T21:06:26.334Z,98565.83
2019-01-20T21:08:56.882Z,98572.31
2019-01-20T21:11:27.828Z,98569.22
2019-01-20T21:13:58.036Z,98572.87
2019-01-20T21:16:28.572Z,98582.06
2019-01-20T21:18:58.777Z,98585.20
2019-01-20T21:21:29.326Z,98583.45
2019-01-20T21:23:59.530Z,98588.72
2019-01-20T21:26:29.760Z,98585.20
2019-01-20T21:29:00.028Z,98587.06
2019-01-20T21:31:30.248Z,98592.48
2019-01-20T21:34:00.469Z,98594.26
2019-01-20T21:36:32.819Z,98597.27
2019-01-20T21:39:03.418Z,98604.35
2019-01-20T21:41:34.998Z,98601.72
2019-01-20T21:44:05.708Z,98603.97
2019-01-20T21:46:36.269Z,98608.98
2019-01-20T21:49:06.476Z,98609.39
2019-01-20T21:51:37.907Z,98608.63
2019-01-20T21:54:08.109Z,98617.38
2019-01-20T21:56:41.245Z,98607.78
2019-01-20T21:59:11.440Z,98607.62
2019-01-20T22:01:41.684Z,98610.08
2019-01-20T22:04:12.981Z,98607.45
2019-01-20T22:06:44.147Z,98611.73
2019-01-20T22:09:14.377Z,98621.83
2019-01-20T22:11:45.356Z,98623.14
2019-01-20T22:14:15.876Z,98623.61
2019-01-20T22:16:52.635Z,98622.68
2019-01-20T22:19:18.995Z,98628.36
2019-01-20T22:21:49.295Z,98629.16
2019-01-20T22:24:19.539Z,98637.39
2019-01-20T22:26:50.179Z,98636.70
2019-01-20T22:29:20.423Z,98635.31
2019-01-20T22:31:50.711Z,98633.88
2019-01-20T22:34:21.217Z,98636.42
2019-01-20T22:36:51.452Z,98642.41
2019-01-20T22:39:22.017Z,98642.45
2019-01-20T22:41:52.765Z,98643.89
2019-01-20T22:44:23.020Z,98641.38
2019-01-20T22:46:59.879Z,98644.17
2019-01-20T22:49:25.563Z,98649.27
2019-01-20T22:51:55.842Z,98647.22
2019-01-20T22:54:26.428Z,98656.34
2019-01-20T22:56:57.345Z,98654.13
2019-01-20T22:59:28.274Z,98655.27
2019-01-20T23:01:58.567Z,98651.33
2019-01-20T23:04:29.142Z,98651.67
2019-01-20T23:06:59.395Z,98659.59
2019-01-20T23:09:29.601Z,98661.33
2019-01-20T23:12:00.222Z,98665.31
2019-01-20T23:14:30.837Z,98667.48
2019-01-20T23:17:07.499Z,98666.51
2019-01-20T23:19:32.967Z,98664.23
2019-01-20T23:22:03.561Z,98660.28
2019-01-20T23:24:33.769Z,98665.55
2019-01-20T23:27:04.067Z,98663.42
2019-01-20T23:29:34.350Z,98663.21
2019-01-20T23:32:04.578Z,98663.84
2019-01-20T23:34:34.789Z,98664.23
2019-01-20T23:37:05.397Z,98662.56
2019-01-20T23:39:35.595Z,98659.59
2019-01-20T23:42:05.816Z,98668.06
2019-01-20T23:44:36.034Z,98665.14
2019-01-20T23:47:06.604Z,98669.88
2019-01-20T23:49:36.796Z,98670.34
2019-01-20T23:52:07.059Z,98673.95
2019-01-20T23:54:37.306Z,98668.61
2019-01-20T23:57:07.546Z,98674.28
2019-01-20T23:59:38.428Z,98673.18
